sensor_id;sensor_type;location;lat;lon;timestamp;P1;P2;P0
56360;PMS7003;42611;51.132;13.588;2023-04-15T00:00:02;8.5;8.1;
56360;PMS7003;42611;51.132;13.588;2023-04-15T00:05:01;7.6;7.4;
56360;PMS7003;42611;51.132;13.588;2023-04-15T00:10:01;7.3;6.6;
56360;PMS7003;42611;51.132;13.588;2023-04-15T00:15:02;7.6;7.0;
56360;PMS7003;42611;51.132;13.588;2023-04-15T00:20:03;6.4;6.0;
56360;PMS7003;42611;51.132;13.588;2023-04-15T00:30:02;6.6;5.6;
56360;PMS7003;42611;51.132;13.588;2023-04-15T00:40:01;6.0;5.4;
56360;PMS7003;42611;51.132;13.588;2023-04-15T00:45:02;6.0;5.5;
56360;PMS7003;42611;51.132;13.588;2023-04-15T00:50:01;6.3;6.1;
56360;PMS7003;42611;51.132;13.588;2023-04-15T00:55:01;6.2;6.1;
56360;PMS7003;42611;51.132;13.588;2023-04-15T01:00:02;5.9;5.8;
56360;PMS7003;42611;51.132;13.588;2023-04-15T01:05:01;6.4;6.2;
56360;PMS7003;42611;51.132;13.588;2023-04-15T01:10:03;7.1;6.7;
56360;PMS7003;42611;51.132;13.588;2023-04-15T01:15:02;7.1;6.5;
56360;PMS7003;42611;51.132;13.588;2023-04-15T01:20:01;7.2;6.6;
56360;PMS7003;42611;51.132;13.588;2023-04-15T01:25:05;7.9;6.9;
56360;PMS7003;42611;51.132;13.588;2023-04-15T01:30:01;7.9;7.0;
56360;PMS7003;42611;51.132;13.588;2023-04-15T01:35:01;7.2;6.6;
56360;PMS7003;42611;51.132;13.588;2023-04-15T01:45:02;7.1;6.5;
56360;PMS7003;42611;51.132;13.588;2023-04-15T01:50:01;7.3;6.9;
56360;PMS7003;42611;51.132;13.588;2023-04-15T01:55:01;8.1;7.5;
56360;PMS7003;42611;51.132;13.588;2023-04-15T02:00:02;9.3;8.6;
56360;PMS7003;42611;51.132;13.588;2023-04-15T02:05:01;9.6;8.8;
56360;PMS7003;42611;51.132;13.588;2023-04-15T02:10:01;9.8;9.2;
56360;PMS7003;42611;51.132;13.588;2023-04-15T02:15:01;9.8;9.4;
56360;PMS7003;42611;51.132;13.588;2023-04-15T02:30:02;9.9;8.9;
56360;PMS7003;42611;51.132;13.588;2023-04-15T02:35:02;10.4;9.6;
56360;PMS7003;42611;51.132;13.588;2023-04-15T02:40:01;10.0;9.2;
56360;PMS7003;42611;51.132;13.588;2023-04-15T02:45:02;9.5;8.7;
56360;PMS7003;42611;51.132;13.588;2023-04-15T02:50:02;9.3;9.2;
56360;PMS7003;42611;51.132;13.588;2023-04-15T02:55:01;9.6;9.4;
56360;PMS7003;42611;51.132;13.588;2023-04-15T03:00:03;8.4;8.3;
56360;PMS7003;42611;51.132;13.588;2023-04-15T03:10:01;9.3;9.2;
56360;PMS7003;42611;51.132;13.588;2023-04-15T03:15:02;9.1;9.0;
56360;PMS7003;42611;51.132;13.588;2023-04-15T03:20:01;9.4;9.2;
56360;PMS7003;42611;51.132;13.588;2023-04-15T03:25:01;10.5;9.8;
56360;PMS7003;42611;51.132;13.588;2023-04-15T03:30:02;10.6;9.9;
56360;PMS7003;42611;51.132;13.588;2023-04-15T03:35:01;10.0;9.1;
56360;PMS7003;42611;51.132;13.588;2023-04-15T03:40:01;10.2;8.9;
56360;PMS7003;42611;51.132;13.588;2023-04-15T03:45:01;9.0;7.8;
56360;PMS7003;42611;51.132;13.588;2023-04-15T03:50:01;8.2;7.4;
56360;PMS7003;42611;51.132;13.588;2023-04-15T03:55:01;8.3;7.4;
56360;PMS7003;42611;51.132;13.588;2023-04-15T04:00:04;8.3;7.7;
56360;PMS7003;42611;51.132;13.588;2023-04-15T04:10:01;8.9;8.7;
56360;PMS7003;42611;51.132;13.588;2023-04-15T04:15:02;9.4;9.2;
56360;PMS7003;42611;51.132;13.588;2023-04-15T04:25:01;10.1;9.9;
56360;PMS7003;42611;51.132;13.588;2023-04-15T04:30:02;10.8;10.4;
56360;PMS7003;42611;51.132;13.588;2023-04-15T04:35:01;11.4;10.8;
56360;PMS7003;42611;51.132;13.588;2023-04-15T04:40:02;11.8;10.8;
56360;PMS7003;42611;51.132;13.588;2023-04-15T04:45:02;12.2;11.2;
56360;PMS7003;42611;51.132;13.588;2023-04-15T04:50:01;12.5;11.3;
56360;PMS7003;42611;51.132;13.588;2023-04-15T04:55:01;12.6;11.4;
56360;PMS7003;42611;51.132;13.588;2023-04-15T05:00:02;13.4;12.2;
56360;PMS7003;42611;51.132;13.588;2023-04-15T05:05:01;14.3;13.4;
56360;PMS7003;42611;51.132;13.588;2023-04-15T05:10:01;15.8;14.8;
56360;PMS7003;42611;51.132;13.588;2023-04-15T05:15:02;16.7;15.6;
56360;PMS7003;42611;51.132;13.588;2023-04-15T05:20:01;16.9;15.8;
56360;PMS7003;42611;51.132;13.588;2023-04-15T05:25:01;16.3;15.4;
56360;PMS7003;42611;51.132;13.588;2023-04-15T05:30:02;15.8;15.0;
56360;PMS7003;42611;51.132;13.588;2023-04-15T05:35:01;14.8;14.2;
56360;PMS7003;42611;51.132;13.588;2023-04-15T05:40:01;14.2;13.7;
56360;PMS7003;42611;51.132;13.588;2023-04-15T05:45:03;13.9;13.4;
56360;PMS7003;42611;51.132;13.588;2023-04-15T05:50:01;14.4;13.5;
56360;PMS7003;42611;51.132;13.588;2023-04-15T05:55:01;13.8;12.6;
56360;PMS7003;42611;51.132;13.588;2023-04-15T06:00:02;13.8;12.4;
56360;PMS7003;42611;51.132;13.588;2023-04-15T06:05:02;13.6;12.4;
56360;PMS7003;42611;51.132;13.588;2023-04-15T06:10:02;13.4;12.2;
56360;PMS7003;42611;51.132;13.588;2023-04-15T06:15:01;13.6;12.8;
56360;PMS7003;42611;51.132;13.588;2023-04-15T06:20:01;14.8;14.4;
56360;PMS7003;42611;51.132;13.588;2023-04-15T06:25:01;15.6;14.8;
56360;PMS7003;42611;51.132;13.588;2023-04-15T06:30:02;14.6;14.1;
56360;PMS7003;42611;51.132;13.588;2023-04-15T06:35:01;15.4;14.9;
56360;PMS7003;42611;51.132;13.588;2023-04-15T06:40:01;14.4;13.9;
56360;PMS7003;42611;51.132;13.588;2023-04-15T06:45:02;13.2;12.7;
56360;PMS7003;42611;51.132;13.588;2023-04-15T06:50:01;11.9;11.8;
56360;PMS7003;42611;51.132;13.588;2023-04-15T06:55:01;12.0;11.5;
56360;PMS7003;42611;51.132;13.588;2023-04-15T07:00:02;9.3;8.8;
56360;PMS7003;42611;51.132;13.588;2023-04-15T07:05:01;8.0;7.4;
56360;PMS7003;42611;51.132;13.588;2023-04-15T07:10:01;7.1;6.6;
56360;PMS7003;42611;51.132;13.588;2023-04-15T07:15:02;5.6;5.1;
56360;PMS7003;42611;51.132;13.588;2023-04-15T07:20:01;3.3;3.3;
56360;PMS7003;42611;51.132;13.588;2023-04-15T07:25:01;3.1;3.0;
56360;PMS7003;42611;51.132;13.588;2023-04-15T07:30:03;2.8;2.7;
56360;PMS7003;42611;51.132;13.588;2023-04-15T07:35:01;2.0;1.9;
56360;PMS7003;42611;51.132;13.588;2023-04-15T07:40:01;1.4;1.4;
56360;PMS7003;42611;51.132;13.588;2023-04-15T07:45:02;1.4;1.4;
56360;PMS7003;42611;51.132;13.588;2023-04-15T07:50:02;1.2;1.2;
56360;PMS7003;42611;51.132;13.588;2023-04-15T07:55:02;0.6;0.6;
56360;PMS7003;42611;51.132;13.588;2023-04-15T08:00:03;0.2;0.2;
56360;PMS7003;42611;51.132;13.588;2023-04-15T08:05:01;0.6;0.6;
56360;PMS7003;42611;51.132;13.588;2023-04-15T08:10:02;0.7;0.6;
56360;PMS7003;42611;51.132;13.588;2023-04-15T08:15:01;0.9;0.8;
56360;PMS7003;42611;51.132;13.588;2023-04-15T08:20:02;1.0;0.9;
56360;PMS7003;42611;51.132;13.588;2023-04-15T08:30:06;0.4;0.4;
56360;PMS7003;42611;51.132;13.588;2023-04-15T08:35:01;0.3;0.3;
56360;PMS7003;42611;51.132;13.588;2023-04-15T08:45:03;0.2;0.2;
56360;PMS7003;42611;51.132;13.588;2023-04-15T09:00:07;0.2;0.2;
56360;PMS7003;42611;51.132;13.588;2023-04-15T09:10:02;0.5;0.5;
56360;PMS7003;42611;51.132;13.588;2023-04-15T09:15:02;0.5;0.5;
56360;PMS7003;42611;51.132;13.588;2023-04-15T09:30:02;0.5;0.5;
56360;PMS7003;42611;51.132;13.588;2023-04-15T09:40:01;0.2;0.2;
56360;PMS7003;42611;51.132;13.588;2023-04-15T09:45:16;0.4;0.4;
56360;PMS7003;42611;51.132;13.588;2023-04-15T09:50:02;0.6;0.6;
56360;PMS7003;42611;51.132;13.588;2023-04-15T09:55:01;1.0;0.6;
56360;PMS7003;42611;51.132;13.588;2023-04-15T10:00:04;1.2;0.8;
56360;PMS7003;42611;51.132;13.588;2023-04-15T10:05:01;1.0;0.6;
56360;PMS7003;42611;51.132;13.588;2023-04-15T10:10:01;0.8;0.4;
56360;PMS7003;42611;51.132;13.588;2023-04-15T10:15:04;0.6;0.3;
56360;PMS7003;42611;51.132;13.588;2023-04-15T10:20:01;1.8;1.8;
56360;PMS7003;42611;51.132;13.588;2023-04-15T10:25:01;3.8;3.8;
56360;PMS7003;42611;51.132;13.588;2023-04-15T10:30:02;5.8;5.6;
56360;PMS7003;42611;51.132;13.588;2023-04-15T10:35:01;7.7;7.2;
56360;PMS7003;42611;51.132;13.588;2023-04-15T10:40:25;9.8;9.0;
56360;PMS7003;42611;51.132;13.588;2023-04-15T10:45:01;10.2;9.4;
56360;PMS7003;42611;51.132;13.588;2023-04-15T10:55:03;10.8;9.8;
56360;PMS7003;42611;51.132;13.588;2023-04-15T11:00:10;10.9;10.1;
56360;PMS7003;42611;51.132;13.588;2023-04-15T11:05:01;11.1;10.7;
56360;PMS7003;42611;51.132;13.588;2023-04-15T11:10:01;11.0;10.1;
56360;PMS7003;42611;51.132;13.588;2023-04-15T11:15:33;11.1;10.2;
56360;PMS7003;42611;51.132;13.588;2023-04-15T11:20:01;11.4;10.6;
56360;PMS7003;42611;51.132;13.588;2023-04-15T11:25:01;11.8;11.1;
56360;PMS7003;42611;51.132;13.588;2023-04-15T11:30:17;12.3;11.0;
56360;PMS7003;42611;51.132;13.588;2023-04-15T11:35:01;12.7;11.8;
56360;PMS7003;42611;51.132;13.588;2023-04-15T11:40:02;13.3;11.8;
56360;PMS7003;42611;51.132;13.588;2023-04-15T11:45:10;12.7;11.3;
56360;PMS7003;42611;51.132;13.588;2023-04-15T11:50:17;12.6;11.2;
56360;PMS7003;42611;51.132;13.588;2023-04-15T11:55:02;12.8;11.8;
56360;PMS7003;42611;51.132;13.588;2023-04-15T12:00:01;13.4;12.5;
56360;PMS7003;42611;51.132;13.588;2023-04-15T12:05:02;12.7;12.2;
56360;PMS7003;42611;51.132;13.588;2023-04-15T12:10:01;13.8;12.8;
56360;PMS7003;42611;51.132;13.588;2023-04-15T12:15:02;13.4;12.3;
56360;PMS7003;42611;51.132;13.588;2023-04-15T12:20:01;12.6;11.6;
56360;PMS7003;42611;51.132;13.588;2023-04-15T12:25:01;12.3;11.1;
56360;PMS7003;42611;51.132;13.588;2023-04-15T12:30:04;12.2;10.9;
56360;PMS7003;42611;51.132;13.588;2023-04-15T12:35:01;10.6;9.9;
56360;PMS7003;42611;51.132;13.588;2023-04-15T12:40:01;11.0;9.8;
56360;PMS7003;42611;51.132;13.588;2023-04-15T12:45:02;10.5;9.6;
56360;PMS7003;42611;51.132;13.588;2023-04-15T12:50:01;10.3;9.2;
56360;PMS7003;42611;51.132;13.588;2023-04-15T12:55:01;10.4;9.2;
56360;PMS7003;42611;51.132;13.588;2023-04-15T13:00:02;10.6;9.4;
56360;PMS7003;42611;51.132;13.588;2023-04-15T13:05:01;10.4;9.6;
56360;PMS7003;42611;51.132;13.588;2023-04-15T13:10:01;9.8;9.0;
56360;PMS7003;42611;51.132;13.588;2023-04-15T13:15:06;9.6;9.1;
56360;PMS7003;42611;51.132;13.588;2023-04-15T13:20:01;9.1;8.9;
56360;PMS7003;42611;51.132;13.588;2023-04-15T13:25:01;8.6;8.5;
56360;PMS7003;42611;51.132;13.588;2023-04-15T13:30:02;7.9;7.8;
56360;PMS7003;42611;51.132;13.588;2023-04-15T13:35:01;8.5;8.4;
56360;PMS7003;42611;51.132;13.588;2023-04-15T13:40:01;8.8;8.8;
56360;PMS7003;42611;51.132;13.588;2023-04-15T13:45:02;9.4;9.0;
56360;PMS7003;42611;51.132;13.588;2023-04-15T13:50:02;9.5;9.0;
56360;PMS7003;42611;51.132;13.588;2023-04-15T13:55:16;10.4;9.6;
56360;PMS7003;42611;51.132;13.588;2023-04-15T14:00:02;10.3;9.5;
56360;PMS7003;42611;51.132;13.588;2023-04-15T14:05:01;9.5;8.7;
56360;PMS7003;42611;51.132;13.588;2023-04-15T14:10:01;8.7;8.4;
56360;PMS7003;42611;51.132;13.588;2023-04-15T14:15:02;8.4;8.0;
56360;PMS7003;42611;51.132;13.588;2023-04-15T14:20:01;8.0;7.5;
56360;PMS7003;42611;51.132;13.588;2023-04-15T14:25:01;7.8;7.2;
56360;PMS7003;42611;51.132;13.588;2023-04-15T14:30:02;10.8;9.8;
56360;PMS7003;42611;51.132;13.588;2023-04-15T14:35:01;11.9;11.0;
56360;PMS7003;42611;51.132;13.588;2023-04-15T14:40:01;13.2;12.2;
56360;PMS7003;42611;51.132;13.588;2023-04-15T14:45:03;13.7;12.9;
56360;PMS7003;42611;51.132;13.588;2023-04-15T14:50:01;14.0;12.9;
56360;PMS7003;42611;51.132;13.588;2023-04-15T14:55:01;11.8;10.9;
56360;PMS7003;42611;51.132;13.588;2023-04-15T15:00:03;11.0;9.9;
56360;PMS7003;42611;51.132;13.588;2023-04-15T15:05:03;10.0;8.6;
56360;PMS7003;42611;51.132;13.588;2023-04-15T15:10:01;9.1;8.0;
56360;PMS7003;42611;51.132;13.588;2023-04-15T15:15:36;9.0;8.2;
56360;PMS7003;42611;51.132;13.588;2023-04-15T15:25:01;8.9;8.0;
56360;PMS7003;42611;51.132;13.588;2023-04-15T15:30:02;8.4;7.9;
56360;PMS7003;42611;51.132;13.588;2023-04-15T15:35:01;8.5;8.1;
56360;PMS7003;42611;51.132;13.588;2023-04-15T15:40:04;9.0;8.6;
56360;PMS7003;42611;51.132;13.588;2023-04-15T15:45:03;8.1;8.1;
56360;PMS7003;42611;51.132;13.588;2023-04-15T15:50:06;8.4;8.1;
56360;PMS7003;42611;51.132;13.588;2023-04-15T15:55:01;9.9;9.2;
56360;PMS7003;42611;51.132;13.588;2023-04-15T16:00:14;10.2;9.4;
56360;PMS7003;42611;51.132;13.588;2023-04-15T16:05:01;10.1;9.0;
56360;PMS7003;42611;51.132;13.588;2023-04-15T16:10:01;10.5;9.3;
56360;PMS7003;42611;51.132;13.588;2023-04-15T16:15:01;10.6;9.3;
56360;PMS7003;42611;51.132;13.588;2023-04-15T16:20:03;9.9;8.8;
56360;PMS7003;42611;51.132;13.588;2023-04-15T16:25:01;10.1;9.0;
56360;PMS7003;42611;51.132;13.588;2023-04-15T16:30:02;11.0;10.0;
56360;PMS7003;42611;51.132;13.588;2023-04-15T16:35:01;12.3;11.4;
56360;PMS7003;42611;51.132;13.588;2023-04-15T16:40:01;12.1;11.6;
56360;PMS7003;42611;51.132;13.588;2023-04-15T16:45:02;12.6;12.3;
56360;PMS7003;42611;51.132;13.588;2023-04-15T16:50:01;12.9;12.6;
56360;PMS7003;42611;51.132;13.588;2023-04-15T16:55:01;12.0;11.9;
56360;PMS7003;42611;51.132;13.588;2023-04-15T17:00:02;11.1;11.1;
56360;PMS7003;42611;51.132;13.588;2023-04-15T17:05:01;11.4;11.2;
56360;PMS7003;42611;51.132;13.588;2023-04-15T17:10:01;11.7;11.3;
56360;PMS7003;42611;51.132;13.588;2023-04-15T17:15:02;11.8;11.2;
56360;PMS7003;42611;51.132;13.588;2023-04-15T17:20:01;12.4;11.6;
56360;PMS7003;42611;51.132;13.588;2023-04-15T17:25:02;12.6;11.6;
56360;PMS7003;42611;51.132;13.588;2023-04-15T17:30:02;12.0;10.9;
56360;PMS7003;42611;51.132;13.588;2023-04-15T17:35:02;11.8;10.6;
56360;PMS7003;42611;51.132;13.588;2023-04-15T17:40:01;11.3;10.2;
56360;PMS7003;42611;51.132;13.588;2023-04-15T17:45:02;12.5;11.6;
56360;PMS7003;42611;51.132;13.588;2023-04-15T17:50:02;12.6;11.6;
56360;PMS7003;42611;51.132;13.588;2023-04-15T17:55:01;13.9;12.2;
56360;PMS7003;42611;51.132;13.588;2023-04-15T18:00:01;13.8;12.4;
56360;PMS7003;42611;51.132;13.588;2023-04-15T18:05:03;15.7;14.2;
56360;PMS7003;42611;51.132;13.588;2023-04-15T18:10:01;15.0;13.5;
56360;PMS7003;42611;51.132;13.588;2023-04-15T18:15:02;15.6;14.4;
56360;PMS7003;42611;51.132;13.588;2023-04-15T18:20:02;19.4;18.4;
56360;PMS7003;42611;51.132;13.588;2023-04-15T18:25:01;25.6;23.0;
56360;PMS7003;42611;51.132;13.588;2023-04-15T18:30:02;32.1;28.0;
56360;PMS7003;42611;51.132;13.588;2023-04-15T18:35:01;39.0;33.0;
56360;PMS7003;42611;51.132;13.588;2023-04-15T18:40:01;41.4;34.9;
56360;PMS7003;42611;51.132;13.588;2023-04-15T18:45:02;37.8;31.9;
56360;PMS7003;42611;51.132;13.588;2023-04-15T18:50:02;32.3;27.8;
56360;PMS7003;42611;51.132;13.588;2023-04-15T18:55:01;25.0;22.0;
56360;PMS7003;42611;51.132;13.588;2023-04-15T19:00:02;17.7;16.3;
56360;PMS7003;42611;51.132;13.588;2023-04-15T19:05:01;15.6;14.6;
56360;PMS7003;42611;51.132;13.588;2023-04-15T19:15:02;15.8;14.9;
56360;PMS7003;42611;51.132;13.588;2023-04-15T19:20:01;15.5;15.0;
56360;PMS7003;42611;51.132;13.588;2023-04-15T19:25:02;15.8;15.4;
56360;PMS7003;42611;51.132;13.588;2023-04-15T19:30:02;15.3;14.7;
56360;PMS7003;42611;51.132;13.588;2023-04-15T19:35:01;16.0;15.0;
56360;PMS7003;42611;51.132;13.588;2023-04-15T19:40:01;16.1;14.9;
56360;PMS7003;42611;51.132;13.588;2023-04-15T19:45:01;17.6;15.5;
56360;PMS7003;42611;51.132;13.588;2023-04-15T19:50:01;17.9;15.6;
56360;PMS7003;42611;51.132;13.588;2023-04-15T19:55:04;19.1;16.8;
56360;PMS7003;42611;51.132;13.588;2023-04-15T20:00:02;19.5;17.5;
56360;PMS7003;42611;51.132;13.588;2023-04-15T20:05:01;19.7;17.9;
56360;PMS7003;42611;51.132;13.588;2023-04-15T20:10:01;19.0;17.6;
56360;PMS7003;42611;51.132;13.588;2023-04-15T20:15:03;20.4;19.0;
56360;PMS7003;42611;51.132;13.588;2023-04-15T20:20:02;21.0;19.5;
56360;PMS7003;42611;51.132;13.588;2023-04-15T20:25:02;20.8;19.4;
56360;PMS7003;42611;51.132;13.588;2023-04-15T20:31:01;22.0;20.4;
56360;PMS7003;42611;51.132;13.588;2023-04-15T20:36:01;22.9;21.4;
56360;PMS7003;42611;51.132;13.588;2023-04-15T20:41:01;22.1;21.0;
56360;PMS7003;42611;51.132;13.588;2023-04-15T20:46:21;21.4;20.3;
56360;PMS7003;42611;51.132;13.588;2023-04-15T20:51:01;21.2;20.2;
56360;PMS7003;42611;51.132;13.588;2023-04-15T20:56:01;22.6;21.5;
56360;PMS7003;42611;51.132;13.588;2023-04-15T21:01:01;23.7;22.2;
56360;PMS7003;42611;51.132;13.588;2023-04-15T21:06:01;24.6;22.6;
56360;PMS7003;42611;51.132;13.588;2023-04-15T21:11:01;24.2;22.7;
56360;PMS7003;42611;51.132;13.588;2023-04-15T21:16:02;24.1;21.6;
56360;PMS7003;42611;51.132;13.588;2023-04-15T21:21:01;21.6;19.0;
56360;PMS7003;42611;51.132;13.588;2023-04-15T21:26:01;19.4;17.0;
56360;PMS7003;42611;51.132;13.588;2023-04-15T21:31:01;17.6;15.5;
56360;PMS7003;42611;51.132;13.588;2023-04-15T21:36:01;18.4;15.6;
56360;PMS7003;42611;51.132;13.588;2023-04-15T21:41:01;17.9;15.9;
56360;PMS7003;42611;51.132;13.588;2023-04-15T21:46:16;17.3;15.5;
56360;PMS7003;42611;51.132;13.588;2023-04-15T21:51:01;20.0;18.2;
56360;PMS7003;42611;51.132;13.588;2023-04-15T22:01:01;20.3;19.0;
56360;PMS7003;42611;51.132;13.588;2023-04-15T22:06:02;22.0;20.5;
56360;PMS7003;42611;51.132;13.588;2023-04-15T22:11:01;23.5;21.7;
56360;PMS7003;42611;51.132;13.588;2023-04-15T22:16:01;23.3;21.1;
56360;PMS7003;42611;51.132;13.588;2023-04-15T22:21:02;22.5;20.2;
56360;PMS7003;42611;51.132;13.588;2023-04-15T22:26:01;24.0;21.1;
56360;PMS7003;42611;51.132;13.588;2023-04-15T22:31:01;23.6;21.0;
56360;PMS7003;42611;51.132;13.588;2023-04-15T22:36:01;23.3;21.0;
56360;PMS7003;42611;51.132;13.588;2023-04-15T22:41:01;22.6;20.7;
56360;PMS7003;42611;51.132;13.588;2023-04-15T22:46:02;24.4;22.5;
56360;PMS7003;42611;51.132;13.588;2023-04-15T22:51:02;23.1;22.0;
56360;PMS7003;42611;51.132;13.588;2023-04-15T22:56:01;23.7;22.5;
56360;PMS7003;42611;51.132;13.588;2023-04-15T23:01:01;27.5;25.3;
56360;PMS7003;42611;51.132;13.588;2023-04-15T23:06:01;28.4;25.8;
56360;PMS7003;42611;51.132;13.588;2023-04-15T23:11:02;28.6;26.2;
56360;PMS7003;42611;51.132;13.588;2023-04-15T23:16:01;28.7;26.4;
56360;PMS7003;42611;51.132;13.588;2023-04-15T23:21:01;28.2;26.0;
56360;PMS7003;42611;51.132;13.588;2023-04-15T23:26:01;24.8;23.9;
56360;PMS7003;42611;51.132;13.588;2023-04-15T23:31:01;25.5;24.0;
56360;PMS7003;42611;51.132;13.588;2023-04-15T23:36:01;26.6;25.0;
56360;PMS7003;42611;51.132;13.588;2023-04-15T23:41:01;27.8;25.7;
56360;PMS7003;42611;51.132;13.588;2023-04-15T23:46:01;28.4;26.2;
56360;PMS7003;42611;51.132;13.588;2023-04-15T23:51:01;30.6;27.8;
56360;PMS7003;42611;51.132;13.588;2023-04-15T23:56:01;28.6;27.1;
